createdAt,value
2022-08-10T00:00:55.900Z,35.15
2022-08-10T00:03:22.586Z,35.19
2022-08-10T00:05:52.816Z,35.23
2022-08-10T00:08:23.593Z,35.26
2022-08-10T00:10:55.392Z,35.51
2022-08-10T00:13:22.989Z,35.57
2022-08-10T00:15:53.918Z,35.54
2022-08-10T00:18:35.062Z,35.58
2022-08-10T00:21:07.279Z,36.10
2022-08-10T00:23:34.890Z,35.76
2022-08-10T00:26:02.192Z,35.95
2022-08-10T00:28:28.797Z,35.96
2022-08-10T00:30:55.507Z,36.20
2022-08-10T00:33:22.151Z,36.19
2022-08-10T00:35:49.182Z,36.37
2022-08-10T00:38:16.086Z,36.23
2022-08-10T00:40:42.751Z,36.31
2022-08-10T00:43:09.535Z,36.63
2022-08-10T00:45:36.702Z,36.80
2022-08-10T00:48:04.031Z,36.81
2022-08-10T00:50:31.091Z,36.71
2022-08-10T00:52:57.800Z,36.81
2022-08-10T00:55:24.705Z,36.98
2022-08-10T00:57:54.871Z,37.16
2022-08-10T01:00:23.154Z,37.24
2022-08-10T01:02:49.752Z,37.30
2022-08-10T01:05:16.538Z,37.44
2022-08-10T01:07:56.697Z,37.79
2022-08-10T01:10:37.592Z,38.06
2022-08-10T01:14:08.896Z,38.08
2022-08-10T01:16:50.174Z,38.25
2022-08-10T01:19:46.839Z,38.31
2022-08-10T01:22:41.379Z,38.50
2022-08-10T01:25:11.301Z,38.05
2022-08-10T01:27:57.522Z,38.70
2022-08-10T01:30:28.642Z,38.65
2022-08-10T01:33:08.629Z,39.13
2022-08-10T01:35:45.555Z,39.14
2022-08-10T01:38:20.944Z,39.06
2022-08-10T01:40:54.887Z,39.15
2022-08-10T01:43:24.448Z,38.79
2022-08-10T01:45:55.445Z,39.12
2022-08-10T01:48:28.281Z,39.41
2022-08-10T01:51:09.322Z,39.60
2022-08-10T01:53:41.866Z,39.52
2022-08-10T01:56:12.245Z,39.04
2022-08-10T01:58:39.724Z,39.08
2022-08-10T02:01:09.735Z,39.67
2022-08-10T02:04:05.165Z,39.60
2022-08-10T02:06:30.106Z,39.78
2022-08-10T02:09:06.210Z,39.61
2022-08-10T02:12:07.784Z,39.66
2022-08-10T02:14:23.767Z,39.43
2022-08-10T02:16:51.430Z,39.05
2022-08-10T02:19:21.962Z,39.56
2022-08-10T02:22:37.137Z,39.40
2022-08-10T02:24:40.923Z,39.59
2022-08-10T02:27:09.214Z,39.78
2022-08-10T02:29:38.005Z,39.93
2022-08-10T02:32:10.354Z,40.10
2022-08-10T02:34:39.240Z,40.35
2022-08-10T02:37:10.786Z,40.78
2022-08-10T02:39:37.890Z,40.54
2022-08-10T02:45:13.652Z,41.36
2022-08-10T02:45:21.566Z,41.28
2022-08-10T02:48:01.600Z,41.42
2022-08-10T02:50:36.701Z,41.44
2022-08-10T02:53:08.185Z,41.28
2022-08-10T02:56:06.476Z,41.79
2022-08-10T02:58:58.963Z,41.52
2022-08-10T03:01:32.294Z,41.63
2022-08-10T03:04:07.654Z,41.81
2022-08-10T03:06:39.882Z,41.71
2022-08-10T03:09:08.550Z,41.20
2022-08-10T03:12:36.209Z,41.48
2022-08-10T03:14:24.358Z,41.17
2022-08-10T03:16:54.411Z,41.46
2022-08-10T03:20:34.314Z,41.72
2022-08-10T03:22:10.257Z,41.91
2022-08-10T03:24:36.805Z,40.75
2022-08-10T03:27:05.048Z,40.85
2022-08-10T03:30:28.119Z,41.41
2022-08-10T03:32:20.747Z,41.20
2022-08-10T03:34:48.226Z,41.34
2022-08-10T03:37:14.876Z,41.47
2022-08-10T03:39:41.525Z,41.82
2022-08-10T03:42:12.923Z,41.81
2022-08-10T03:44:43.047Z,41.58
2022-08-10T03:47:15.285Z,41.86
2022-08-10T03:49:46.772Z,42.03
2022-08-10T03:52:15.186Z,41.99
2022-08-10T03:54:42.812Z,42.13
2022-08-10T03:57:09.925Z,41.76
2022-08-10T03:59:37.023Z,42.12
2022-08-10T04:02:45.980Z,42.12
2022-08-10T04:04:53.229Z,42.04
2022-08-10T04:07:19.777Z,42.20
2022-08-10T04:09:54.889Z,42.21
2022-08-10T04:12:23.480Z,42.25
2022-08-10T04:14:52.925Z,42.39
2022-08-10T04:18:03.038Z,42.75
2022-08-10T04:20:25.610Z,42.83
2022-08-10T04:22:57.642Z,42.48
2022-08-10T04:25:27.904Z,42.60
2022-08-10T04:27:55.260Z,42.52
2022-08-10T04:30:22.726Z,42.55
2022-08-10T04:32:53.627Z,43.04
2022-08-10T04:35:22.792Z,42.67
2022-08-10T04:37:51.071Z,42.67
2022-08-10T04:40:28.798Z,42.61
2022-08-10T04:43:11.723Z,42.92
2022-08-10T04:45:47.587Z,42.95
2022-08-10T04:48:41.634Z,42.82
2022-08-10T04:51:17.940Z,42.75
2022-08-10T04:54:04.706Z,42.75
2022-08-10T04:56:39.074Z,42.90
2022-08-10T04:59:06.993Z,42.39
2022-08-10T05:02:22.059Z,42.41
2022-08-10T05:04:36.307Z,42.65
2022-08-10T05:07:10.859Z,42.41
2022-08-10T05:10:01.154Z,42.76
2022-08-10T05:12:26.134Z,42.45
2022-08-10T05:14:53.857Z,42.44
2022-08-10T05:17:21.623Z,41.89
2022-08-10T05:20:03.031Z,41.89
2022-08-10T05:22:36.272Z,42.00
2022-08-10T05:25:04.810Z,42.02
2022-08-10T05:27:31.382Z,41.87
2022-08-10T05:30:01.486Z,42.08
2022-08-10T05:32:30.004Z,41.82
2022-08-10T05:34:56.731Z,41.83
2022-08-10T05:38:08.898Z,41.70
2022-08-10T05:40:12.257Z,41.35
2022-08-10T05:42:40.900Z,41.45
2022-08-10T05:45:15.837Z,41.34
2022-08-10T05:48:54.221Z,41.23
2022-08-10T05:50:31.176Z,41.77
2022-08-10T05:52:58.412Z,41.54
2022-08-10T05:55:31.101Z,41.32
2022-08-10T05:57:59.889Z,41.12
2022-08-10T06:00:36.728Z,41.09
2022-08-10T06:03:08.467Z,41.26
2022-08-10T06:05:39.649Z,40.97
2022-08-10T06:08:09.572Z,41.12
2022-08-10T06:10:50.874Z,40.94
2022-08-10T06:14:00.038Z,40.64
2022-08-10T06:16:33.062Z,40.67
2022-08-10T06:19:02.081Z,40.45
2022-08-10T06:21:28.879Z,40.79
2022-08-10T06:23:59.419Z,40.65
2022-08-10T06:26:25.921Z,40.34
2022-08-10T06:29:03.145Z,40.20
2022-08-10T06:31:48.184Z,40.16
2022-08-10T06:34:20.828Z,39.98
2022-08-10T06:36:48.538Z,40.04
2022-08-10T06:39:34.161Z,40.01
2022-08-10T06:42:15.892Z,39.29
2022-08-10T06:44:53.718Z,39.38
2022-08-10T06:47:23.520Z,39.46
2022-08-10T06:49:59.898Z,39.60
2022-08-10T06:52:28.602Z,39.72
2022-08-10T06:54:58.441Z,39.84
2022-08-10T06:57:26.534Z,39.56
2022-08-10T06:59:54.293Z,40.09
2022-08-10T07:02:32.224Z,39.39
2022-08-10T07:05:08.634Z,38.75
2022-08-10T07:07:39.162Z,38.46
2022-08-10T07:10:07.149Z,38.67
2022-08-10T07:12:37.077Z,38.38
2022-08-10T07:15:06.987Z,37.79
2022-08-10T07:17:39.557Z,37.61
2022-08-10T07:20:11.258Z,37.34
2022-08-10T07:23:08.153Z,37.49
2022-08-10T07:25:28.344Z,37.48
2022-08-10T07:28:00.859Z,37.45
2022-08-10T07:30:36.768Z,37.10
2022-08-10T07:33:05.277Z,37.41
2022-08-10T07:35:41.942Z,37.87
2022-08-10T07:38:13.797Z,37.40
2022-08-10T07:40:42.243Z,37.55
2022-08-10T07:43:09.734Z,38.49
2022-08-10T07:45:38.984Z,37.33
2022-08-10T07:48:11.694Z,36.28
2022-08-10T07:50:40.455Z,35.69
2022-08-10T07:53:12.282Z,34.39
2022-08-10T07:56:03.448Z,33.36
2022-08-10T07:58:38.431Z,31.85
2022-08-10T08:01:05.181Z,32.02
2022-08-10T08:03:32.934Z,30.79
2022-08-10T08:06:05.314Z,29.96
2022-08-10T08:08:40.583Z,29.63
2022-08-10T08:11:09.145Z,28.90
2022-08-10T08:13:53.817Z,27.91
2022-08-10T08:16:22.349Z,27.65
2022-08-10T08:19:16.475Z,27.11
2022-08-10T08:24:04.648Z,26.34
2022-08-10T08:24:32.561Z,26.46
2022-08-10T08:27:02.810Z,24.88
2022-08-10T08:29:33.302Z,24.27
2022-08-10T08:32:03.233Z,24.97
2022-08-10T08:34:37.493Z,23.47
2022-08-10T08:37:05.617Z,23.63
2022-08-10T08:39:33.566Z,23.56
2022-08-10T08:42:23.455Z,23.53
2022-08-10T08:45:07.817Z,22.41
2022-08-10T08:48:03.891Z,23.10
2022-08-10T08:50:57.363Z,22.86
2022-08-10T08:54:00.914Z,22.84
2022-08-10T08:56:35.855Z,22.86
2022-08-10T08:59:19.567Z,23.08
2022-08-10T09:02:11.696Z,23.36
2022-08-10T09:04:55.723Z,23.02
2022-08-10T09:08:02.887Z,23.64
2022-08-10T09:11:00.225Z,23.52
2022-08-10T09:13:41.287Z,23.16
2022-08-10T09:16:16.841Z,22.37
2022-08-10T09:19:07.823Z,23.35
2022-08-10T09:21:59.163Z,23.42
2022-08-10T09:24:51.956Z,23.00
2022-08-10T09:27:21.730Z,23.00
2022-08-10T09:30:02.735Z,23.27
2022-08-10T09:35:39.385Z,22.93
2022-08-10T09:36:29.832Z,23.40
2022-08-10T09:38:36.107Z,23.46
2022-08-10T09:41:13.164Z,23.04
2022-08-10T09:43:59.110Z,23.25
2022-08-10T09:46:44.305Z,22.59
2022-08-10T09:49:54.069Z,22.51
2022-08-10T09:52:24.019Z,21.97
2022-08-10T09:54:53.541Z,22.04
2022-08-10T09:57:44.251Z,21.87
2022-08-10T10:00:16.059Z,22.28
2022-08-10T10:03:07.422Z,22.75
2022-08-10T10:05:52.215Z,22.40
2022-08-10T10:08:21.989Z,21.61
2022-08-10T10:10:51.643Z,21.17
2022-08-10T10:14:03.929Z,22.45
2022-08-10T10:16:41.934Z,21.64
2022-08-10T10:19:27.221Z,21.11
2022-08-10T10:21:56.849Z,20.84
2022-08-10T10:24:43.680Z,21.00
2022-08-10T10:27:38.434Z,21.44
2022-08-10T10:30:09.672Z,21.01
2022-08-10T10:33:07.597Z,21.73
2022-08-10T10:35:55.346Z,21.21
2022-08-10T10:38:27.015Z,20.76
2022-08-10T10:41:03.764Z,20.95
2022-08-10T10:44:01.060Z,21.40
2022-08-10T10:46:30.848Z,22.09
2022-08-10T10:49:27.919Z,21.06
2022-08-10T10:52:09.168Z,20.56
2022-08-10T10:54:44.848Z,21.03
2022-08-10T10:57:58.516Z,20.79
2022-08-10T11:00:13.093Z,20.53
2022-08-10T11:02:58.907Z,20.48
2022-08-10T11:05:31.901Z,20.54
2022-08-10T11:08:33.918Z,20.83
2022-08-10T11:11:20.439Z,20.83
2022-08-10T11:14:29.096Z,20.79
2022-08-10T11:17:09.774Z,20.83
2022-08-10T11:20:03.418Z,20.73
2022-08-10T11:22:40.217Z,20.23
2022-08-10T11:25:30.360Z,20.75
2022-08-10T11:28:29.175Z,20.00
2022-08-10T11:30:55.605Z,20.38
2022-08-10T11:34:11.245Z,20.62
2022-08-10T11:37:01.101Z,20.57
2022-08-10T11:39:49.971Z,21.00
2022-08-10T11:43:00.711Z,21.21
2022-08-10T11:45:32.098Z,20.07
2022-08-10T11:48:52.931Z,20.43
2022-08-10T11:51:35.612Z,19.88
2022-08-10T11:54:14.550Z,19.86
2022-08-10T11:56:50.670Z,19.39
2022-08-10T11:59:37.368Z,19.26
2022-08-10T12:02:06.393Z,18.78
2022-08-10T12:04:35.112Z,19.29
2022-08-10T12:10:02.210Z,19.27
2022-08-10T12:10:04.616Z,19.53
2022-08-10T12:12:46.968Z,19.42
2022-08-10T12:15:21.723Z,19.43
2022-08-10T12:17:55.950Z,18.96
2022-08-10T12:20:31.366Z,19.27
2022-08-10T12:23:07.998Z,19.44
2022-08-10T12:25:58.465Z,19.55
2022-08-10T12:28:50.527Z,19.60
2022-08-10T12:31:22.990Z,18.81
2022-08-10T12:34:04.718Z,19.36
2022-08-10T12:36:41.855Z,18.84
2022-08-10T12:39:26.917Z,19.66
2022-08-10T12:42:10.811Z,19.01
2022-08-10T12:44:50.431Z,19.35
2022-08-10T12:47:37.153Z,19.57
2022-08-10T12:50:20.058Z,18.84
2022-08-10T12:53:06.790Z,18.65
2022-08-10T12:55:34.519Z,18.70
2022-08-10T12:58:05.473Z,19.02
2022-08-10T13:01:15.284Z,18.72
2022-08-10T13:04:23.828Z,19.19
2022-08-10T13:06:34.167Z,18.90
2022-08-10T13:09:11.083Z,19.06
2022-08-10T13:12:44.271Z,18.84
2022-08-10T13:14:41.733Z,19.33
2022-08-10T13:17:09.821Z,19.21
2022-08-10T13:19:55.043Z,19.30
2022-08-10T13:22:27.482Z,19.08
2022-08-10T13:24:58.736Z,19.62
2022-08-10T13:28:01.408Z,19.12
2022-08-10T13:30:16.694Z,18.64
2022-08-10T13:32:49.601Z,19.05
2022-08-10T13:35:19.608Z,18.63
2022-08-10T13:37:48.337Z,19.03
2022-08-10T13:40:19.085Z,18.82
2022-08-10T13:42:47.800Z,18.49
2022-08-10T13:45:17.900Z,18.44
2022-08-10T13:47:50.162Z,18.93
2022-08-10T13:50:43.828Z,19.29
2022-08-10T13:53:15.531Z,18.65
2022-08-10T13:55:55.380Z,19.04
2022-08-10T13:58:30.420Z,18.70
2022-08-10T14:00:59.306Z,18.57
2022-08-10T14:03:28.173Z,18.99
2022-08-10T14:05:58.292Z,18.16
2022-08-10T14:08:31.200Z,18.02
2022-08-10T14:11:12.347Z,17.87
2022-08-10T14:14:07.579Z,18.50
2022-08-10T14:16:34.915Z,18.31
2022-08-10T14:19:10.306Z,18.61
2022-08-10T14:21:40.963Z,18.17
2022-08-10T14:24:20.306Z,18.63
2022-08-10T14:26:48.429Z,17.80
2022-08-10T14:29:18.953Z,17.91
2022-08-10T14:32:01.157Z,17.70
2022-08-10T14:36:16.444Z,17.67
2022-08-10T14:37:31.225Z,18.13
2022-08-10T14:40:08.062Z,18.09
2022-08-10T14:42:44.640Z,17.93
2022-08-10T14:45:20.155Z,17.86
2022-08-10T14:47:55.944Z,17.97
2022-08-10T14:50:32.530Z,17.94
2022-08-10T14:53:26.497Z,17.89
2022-08-10T14:55:58.670Z,18.15
2022-08-10T14:58:31.070Z,18.07
2022-08-10T15:00:58.609Z,18.24
2022-08-10T15:04:02.302Z,17.67
2022-08-10T15:06:19.024Z,17.78
2022-08-10T15:08:47.611Z,17.44
2022-08-10T15:12:13.991Z,17.79
2022-08-10T15:14:32.127Z,17.63
2022-08-10T15:16:55.206Z,17.49
2022-08-10T15:20:03.459Z,17.68
2022-08-10T15:22:36.609Z,17.57
2022-08-10T15:25:16.008Z,17.40
2022-08-10T15:27:53.474Z,17.53
2022-08-10T15:30:30.375Z,17.88
2022-08-10T15:33:59.310Z,17.88
2022-08-10T15:36:33.396Z,17.37
2022-08-10T15:39:02.849Z,17.62
2022-08-10T15:41:58.915Z,17.77
2022-08-10T15:44:38.272Z,17.72
2022-08-10T15:47:07.917Z,18.46
2022-08-10T15:49:50.120Z,17.79
2022-08-10T15:53:00.044Z,17.75
2022-08-10T15:55:43.030Z,17.71
2022-08-10T15:58:38.790Z,18.19
2022-08-10T16:02:04.622Z,18.01
2022-08-10T16:04:36.754Z,17.90
2022-08-10T16:07:10.531Z,17.99
2022-08-10T16:10:22.540Z,17.83
2022-08-10T16:12:36.707Z,18.31
2022-08-10T16:15:09.815Z,18.20
2022-08-10T16:17:54.293Z,18.33
2022-08-10T16:20:31.279Z,18.53
2022-08-10T16:23:02.152Z,17.95
2022-08-10T16:25:49.778Z,17.97
2022-08-10T16:28:23.335Z,18.30
2022-08-10T16:30:53.094Z,18.23
2022-08-10T16:33:53.050Z,17.91
2022-08-10T16:36:16.664Z,18.20
2022-08-10T16:38:46.934Z,17.95
2022-08-10T16:42:00.805Z,18.02
2022-08-10T16:44:04.002Z,18.51
2022-08-10T16:46:32.606Z,18.44
2022-08-10T16:49:01.560Z,18.28
2022-08-10T16:51:28.583Z,18.04
2022-08-10T16:53:58.954Z,18.62
2022-08-10T16:56:32.625Z,18.34
2022-08-10T16:59:01.108Z,18.05
2022-08-10T17:01:35.950Z,18.29
2022-08-10T17:04:09.928Z,18.42
2022-08-10T17:06:43.047Z,18.61
2022-08-10T17:09:16.876Z,18.12
2022-08-10T17:11:47.629Z,18.09
2022-08-10T17:14:14.642Z,18.26
2022-08-10T17:16:44.177Z,18.13
2022-08-10T17:19:14.269Z,18.54
2022-08-10T17:21:51.147Z,18.23
2022-08-10T17:24:22.723Z,18.32
2022-08-10T17:26:51.074Z,17.91
2022-08-10T17:29:58.112Z,18.41
2022-08-10T17:32:20.675Z,18.78
2022-08-10T17:34:52.548Z,18.46
2022-08-10T17:37:22.558Z,18.63
2022-08-10T17:39:58.778Z,18.50
2022-08-10T17:42:25.604Z,18.45
2022-08-10T17:44:54.267Z,18.82
2022-08-10T17:47:26.316Z,18.54
2022-08-10T17:49:58.653Z,18.83
2022-08-10T17:52:29.088Z,19.05
2022-08-10T17:55:00.881Z,18.94
2022-08-10T17:57:32.793Z,19.00
2022-08-10T18:00:01.964Z,19.19
2022-08-10T18:02:36.491Z,19.01
2022-08-10T18:05:03.845Z,19.08
2022-08-10T18:07:36.000Z,19.32
2022-08-10T18:10:05.387Z,19.22
2022-08-10T18:12:42.800Z,19.22
2022-08-10T18:15:13.642Z,19.41
2022-08-10T18:17:44.713Z,19.73
2022-08-10T18:20:13.062Z,19.46
2022-08-10T18:22:44.840Z,19.62
2022-08-10T18:25:18.344Z,19.74
2022-08-10T18:28:01.304Z,19.69
2022-08-10T18:30:36.203Z,19.52
2022-08-10T18:33:08.633Z,19.64
2022-08-10T18:35:35.650Z,19.67
2022-08-10T18:38:04.890Z,19.58
2022-08-10T18:40:36.554Z,19.92
2022-08-10T18:44:04.465Z,19.75
2022-08-10T18:45:56.880Z,19.74
2022-08-10T18:48:33.212Z,20.19
2022-08-10T18:51:06.145Z,20.00
2022-08-10T18:53:47.908Z,20.14
2022-08-10T18:56:20.869Z,20.25
2022-08-10T18:59:18.654Z,20.58
2022-08-10T19:02:07.125Z,20.56
2022-08-10T19:05:03.378Z,20.70
2022-08-10T19:07:57.276Z,20.45
2022-08-10T19:10:47.052Z,20.53
2022-08-10T19:13:25.333Z,20.68
2022-08-10T19:15:56.438Z,20.65
2022-08-10T19:18:32.280Z,20.82
2022-08-10T19:21:16.320Z,21.16
2022-08-10T19:24:02.941Z,20.99
2022-08-10T19:26:43.817Z,20.83
2022-08-10T19:30:09.786Z,21.09
2022-08-10T19:32:59.612Z,21.22
2022-08-10T19:36:03.673Z,21.45
2022-08-10T19:38:50.491Z,21.20
2022-08-10T19:41:41.775Z,21.83
2022-08-10T19:44:35.436Z,21.38
2022-08-10T19:47:16.993Z,21.67
2022-08-10T19:50:09.233Z,22.09
2022-08-10T19:53:06.014Z,21.95
2022-08-10T19:55:41.583Z,21.89
2022-08-10T19:58:20.051Z,22.32
2022-08-10T20:01:02.320Z,22.50
2022-08-10T20:03:47.148Z,22.53
2022-08-10T20:06:20.569Z,22.38
2022-08-10T20:09:02.363Z,22.34
2022-08-10T20:11:50.059Z,22.49
2022-08-10T20:14:30.499Z,22.53
2022-08-10T20:17:13.335Z,22.61
2022-08-10T20:20:04.284Z,22.59
2022-08-10T20:22:44.631Z,23.26
2022-08-10T20:25:20.805Z,23.17
2022-08-10T20:27:59.599Z,22.97
2022-08-10T20:30:32.778Z,23.16
2022-08-10T20:33:09.496Z,22.95
2022-08-10T20:35:53.752Z,23.09
2022-08-10T20:38:47.257Z,23.48
2022-08-10T20:41:46.013Z,23.36
2022-08-10T20:44:28.266Z,23.54
2022-08-10T20:47:02.806Z,23.59
2022-08-10T20:49:39.475Z,23.33
2022-08-10T20:52:07.803Z,23.23
2022-08-10T20:54:40.429Z,23.50
2022-08-10T20:58:04.423Z,23.56
2022-08-10T21:00:23.242Z,23.49
2022-08-10T21:03:07.121Z,23.80
2022-08-10T21:05:40.591Z,23.86
2022-08-10T21:08:35.101Z,23.81
2022-08-10T21:11:20.818Z,24.01
2022-08-10T21:14:32.368Z,23.85
2022-08-10T21:17:04.615Z,23.92
2022-08-10T21:19:40.260Z,24.13
2022-08-10T21:22:29.324Z,24.10
2022-08-10T21:25:02.989Z,24.49
2022-08-10T21:27:57.685Z,24.69
2022-08-10T21:30:36.162Z,24.31
2022-08-10T21:33:17.761Z,24.68
2022-08-10T21:35:52.089Z,24.97
2022-08-10T21:38:39.914Z,24.68
2022-08-10T21:41:57.072Z,24.88
2022-08-10T21:45:17.041Z,24.73
2022-08-10T21:48:18.517Z,24.92
2022-08-10T21:54:42.721Z,25.13
2022-08-10T21:57:58.794Z,25.75
2022-08-10T22:00:44.110Z,25.62
2022-08-10T22:03:39.939Z,25.75
2022-08-10T22:06:27.815Z,25.44
2022-08-10T22:09:21.878Z,25.98
2022-08-10T22:12:25.096Z,26.34
2022-08-10T22:15:24.044Z,26.22
2022-08-10T22:18:31.287Z,25.86
2022-08-10T22:21:45.141Z,26.42
2022-08-10T22:25:05.297Z,26.00
2022-08-10T22:28:02.164Z,26.08
2022-08-10T22:31:26.877Z,25.45
2022-08-10T22:31:27.736Z,26.66
2022-08-10T22:34:15.597Z,26.55
2022-08-10T22:37:11.639Z,26.79
2022-08-10T22:40:17.127Z,26.70
2022-08-10T22:43:10.278Z,26.77
2022-08-10T22:46:03.198Z,26.91
2022-08-10T22:48:48.478Z,26.83
2022-08-10T22:51:22.957Z,27.20
2022-08-10T22:54:31.471Z,27.03
2022-08-10T22:57:19.544Z,27.24
2022-08-10T22:59:47.342Z,27.53
2022-08-10T23:02:29.874Z,27.43
2022-08-10T23:05:05.549Z,27.93
2022-08-10T23:07:46.377Z,27.74
2022-08-10T23:10:15.645Z,27.99
2022-08-10T23:12:55.045Z,28.05
2022-08-10T23:15:51.902Z,28.48
2022-08-10T23:19:04.539Z,28.10
2022-08-10T23:22:01.662Z,28.24
2022-08-10T23:24:48.737Z,28.03
2022-08-10T23:27:37.814Z,28.44
2022-08-10T23:30:10.547Z,28.42
2022-08-10T23:32:46.286Z,28.61
2022-08-10T23:36:04.585Z,29.08
2022-08-10T23:38:08.000Z,28.89
2022-08-10T23:40:36.216Z,29.23
2022-08-10T23:43:04.813Z,29.22
2022-08-10T23:45:52.474Z,28.12
2022-08-10T23:48:27.388Z,29.14
2022-08-10T23:50:59.866Z,29.28
2022-08-10T23:53:30.232Z,29.41
2022-08-10T23:56:18.136Z,29.92
2022-08-10T23:58:50.764Z,29.93
